createdAt,value
2018-04-24T00:01:54.747Z,20.43
2018-04-24T00:04:23.249Z,21.30
2018-04-24T00:06:51.798Z,20.63
2018-04-24T00:09:20.236Z,19.67
2018-04-24T00:11:48.300Z,20.57
2018-04-24T00:14:16.472Z,19.60
2018-04-24T00:16:44.640Z,21.47
2018-04-24T00:19:12.926Z,20.90
2018-04-24T00:21:40.978Z,20.37
2018-04-24T00:24:09.032Z,22.10
2018-04-24T00:26:37.234Z,21.47
2018-04-24T00:29:05.606Z,20.80
2018-04-24T00:31:34.507Z,20.70
2018-04-24T00:34:05.948Z,20.10
2018-04-24T00:36:34.119Z,21.97
2018-04-24T00:39:02.249Z,20.47
2018-04-24T00:41:30.471Z,20.23
2018-04-24T00:43:58.540Z,21.30
2018-04-24T00:46:26.512Z,21.03
2018-04-24T00:48:54.686Z,21.10
2018-04-24T00:51:22.952Z,19.70
2018-04-24T00:53:51.030Z,22.10
2018-04-24T00:56:19.201Z,23.50
2018-04-24T00:58:47.486Z,21.80
2018-04-24T01:01:15.740Z,21.30
2018-04-24T01:03:44.020Z,20.43
2018-04-24T01:06:12.226Z,20.90
2018-04-24T01:08:41.004Z,20.80
2018-04-24T01:11:10.188Z,22.80
2018-04-24T01:13:39.192Z,22.87
2018-04-24T01:16:07.255Z,23.07
2018-04-24T01:18:35.580Z,22.60
2018-04-24T01:21:04.972Z,23.30
2018-04-24T01:23:33.212Z,20.80
2018-04-24T01:26:01.388Z,19.63
2018-04-24T01:28:29.436Z,24.03
2018-04-24T01:30:57.685Z,24.37
2018-04-24T01:33:26.107Z,25.23
2018-04-24T01:35:55.605Z,23.63
2018-04-24T01:38:23.798Z,25.00
2018-04-24T01:40:53.497Z,23.93
2018-04-24T01:43:22.053Z,23.20
2018-04-24T01:45:50.246Z,23.83
2018-04-24T01:48:18.631Z,23.70
2018-04-24T01:50:46.914Z,22.50
2018-04-24T01:53:15.091Z,24.03
2018-04-24T01:55:43.153Z,22.17
2018-04-24T01:58:11.342Z,25.17
2018-04-24T02:00:40.424Z,24.23
2018-04-24T02:03:08.995Z,23.20
2018-04-24T02:05:37.386Z,22.73
2018-04-24T02:08:05.560Z,23.00
2018-04-24T02:10:33.719Z,24.37
2018-04-24T02:13:01.694Z,23.50
2018-04-24T02:15:30.070Z,26.83
2018-04-24T02:17:58.249Z,25.27
2018-04-24T02:20:26.512Z,25.50
2018-04-24T02:22:56.018Z,24.20
2018-04-24T02:25:24.620Z,25.20
2018-04-24T02:27:52.867Z,23.47
2018-04-24T02:30:21.269Z,24.70
2018-04-24T02:32:49.548Z,23.33
2018-04-24T02:35:17.974Z,24.63
2018-04-24T02:37:46.499Z,24.17
2018-04-24T02:40:14.855Z,23.43
2018-04-24T02:42:43.196Z,25.27
2018-04-24T02:45:11.444Z,25.03
2018-04-24T02:47:40.445Z,25.63
2018-04-24T02:50:09.624Z,25.23
2018-04-24T02:52:37.902Z,24.97
2018-04-24T02:55:07.199Z,26.63
2018-04-24T02:57:35.268Z,24.80
2018-04-24T03:00:03.744Z,25.60
2018-04-24T03:02:31.918Z,24.90
2018-04-24T03:05:02.128Z,24.53
2018-04-24T03:07:30.823Z,25.90
2018-04-24T03:10:00.078Z,24.80
2018-04-24T03:12:28.516Z,24.80
2018-04-24T03:14:56.783Z,26.80
2018-04-24T03:17:26.258Z,25.57
2018-04-24T03:19:54.353Z,25.33
2018-04-24T03:22:22.415Z,28.43
2018-04-24T03:24:50.599Z,24.60
2018-04-24T03:27:19.080Z,26.40
2018-04-24T03:29:47.520Z,26.97
2018-04-24T03:32:15.540Z,28.80
2018-04-24T03:34:44.915Z,27.63
2018-04-24T03:37:13.189Z,27.27
2018-04-24T03:39:41.799Z,27.43
2018-04-24T03:42:09.929Z,28.00
2018-04-24T03:44:38.454Z,28.60
2018-04-24T03:47:07.019Z,27.30
2018-04-24T03:49:35.925Z,27.27
2018-04-24T03:52:04.405Z,27.87
2018-04-24T03:54:34.186Z,30.23
2018-04-24T03:57:02.588Z,27.73
2018-04-24T03:59:31.070Z,27.60
2018-04-24T04:01:59.348Z,27.47
2018-04-24T04:04:28.649Z,26.50
2018-04-24T04:06:57.026Z,27.67
2018-04-24T04:09:26.324Z,28.00
2018-04-24T04:11:54.947Z,27.17
2018-04-24T04:14:23.285Z,26.07
2018-04-24T04:16:51.358Z,28.63
2018-04-24T04:19:31.306Z,28.00
2018-04-24T04:22:11.370Z,27.53
2018-04-24T04:24:48.662Z,28.00
2018-04-24T04:27:17.542Z,27.40
2018-04-24T04:29:46.985Z,27.77
2018-04-24T04:32:15.317Z,26.37
2018-04-24T04:34:44.712Z,26.07
2018-04-24T04:37:13.127Z,27.50
2018-04-24T04:39:42.029Z,28.60
2018-04-24T04:42:10.164Z,28.10
2018-04-24T04:44:38.229Z,26.80
2018-04-24T04:47:18.590Z,28.70
2018-04-24T04:49:46.849Z,26.43
2018-04-24T04:52:15.365Z,27.10
2018-04-24T04:54:44.651Z,29.73
2018-04-24T04:57:12.915Z,27.17
2018-04-24T04:59:41.505Z,27.50
2018-04-24T05:02:09.579Z,27.70
2018-04-24T05:04:37.826Z,28.10
2018-04-24T05:07:06.617Z,25.30
2018-04-24T05:09:34.914Z,27.30
2018-04-24T05:12:03.298Z,27.33
2018-04-24T05:14:32.109Z,25.93
2018-04-24T05:17:01.174Z,27.30
2018-04-24T05:19:29.250Z,27.30
2018-04-24T05:21:57.558Z,27.10
2018-04-24T05:24:25.991Z,25.03
2018-04-24T05:26:54.603Z,22.87
2018-04-24T05:29:24.202Z,26.93
2018-04-24T05:31:52.370Z,27.10
2018-04-24T05:34:20.643Z,25.83
2018-04-24T05:36:48.687Z,25.33
2018-04-24T05:39:16.679Z,24.60
2018-04-24T05:41:44.861Z,24.17
2018-04-24T05:44:14.175Z,24.03
2018-04-24T05:46:43.444Z,22.30
2018-04-24T05:49:11.629Z,23.27
2018-04-24T05:51:39.804Z,22.23
2018-04-24T05:54:08.890Z,21.33
2018-04-24T05:56:38.739Z,21.23
2018-04-24T05:59:07.702Z,20.93
2018-04-24T06:01:36.087Z,20.57
2018-04-24T06:04:04.221Z,22.33
2018-04-24T06:06:32.405Z,20.47
2018-04-24T06:09:00.489Z,21.87
2018-04-24T06:11:28.463Z,22.33
2018-04-24T06:13:58.685Z,22.80
2018-04-24T06:16:26.758Z,20.17
2018-04-24T06:18:55.239Z,23.00
2018-04-24T06:21:23.527Z,22.97
2018-04-24T06:23:52.710Z,21.97
2018-04-24T06:26:21.128Z,20.90
2018-04-24T06:28:49.368Z,21.10
2018-04-24T06:31:17.849Z,21.37
2018-04-24T06:33:46.224Z,22.63
2018-04-24T06:36:14.704Z,22.13
2018-04-24T06:38:43.695Z,22.97
2018-04-24T06:41:11.556Z,23.20
2018-04-24T06:43:39.931Z,20.93
2018-04-24T06:46:08.226Z,20.77
2018-04-24T06:48:37.204Z,21.83
2018-04-24T06:51:06.259Z,21.40
2018-04-24T06:53:34.462Z,21.40
2018-04-24T06:56:03.365Z,20.33
2018-04-24T06:58:32.260Z,20.83
2018-04-24T07:01:00.521Z,20.27
2018-04-24T07:03:28.798Z,20.23
2018-04-24T07:05:56.877Z,21.10
2018-04-24T07:08:25.070Z,21.13
2018-04-24T07:10:54.142Z,20.83
2018-04-24T07:13:22.116Z,21.40
2018-04-24T07:15:50.302Z,20.70
2018-04-24T07:18:19.703Z,19.17
2018-04-24T07:20:49.101Z,20.33
2018-04-24T07:23:17.588Z,19.17
2018-04-24T07:25:46.843Z,18.60
2018-04-24T07:28:15.049Z,19.50
2018-04-24T07:30:43.936Z,19.53
2018-04-24T07:33:12.544Z,18.40
2018-04-24T07:35:41.416Z,19.40
2018-04-24T07:38:09.660Z,19.93
2018-04-24T07:40:37.804Z,19.70
2018-04-24T07:43:05.823Z,19.90
2018-04-24T07:45:34.265Z,20.57
2018-04-24T07:48:02.479Z,21.10
2018-04-24T07:50:30.960Z,21.67
2018-04-24T07:52:59.240Z,21.40
2018-04-24T07:55:27.731Z,19.50
2018-04-24T07:57:56.829Z,23.00
2018-04-24T08:00:26.936Z,21.77
2018-04-24T08:02:55.341Z,21.73
2018-04-24T08:05:24.398Z,22.53
2018-04-24T08:07:52.577Z,22.37
2018-04-24T08:10:21.071Z,29.87
2018-04-24T08:12:50.169Z,22.20
2018-04-24T08:15:19.351Z,22.03
2018-04-24T08:17:47.730Z,22.70
2018-04-24T08:20:16.014Z,22.90
2018-04-24T08:22:44.271Z,24.20
2018-04-24T08:25:12.664Z,23.23
2018-04-24T08:27:41.047Z,25.80
2018-04-24T08:30:09.527Z,23.90
2018-04-24T08:32:38.130Z,24.40
2018-04-24T08:35:07.490Z,24.40
2018-04-24T08:37:35.993Z,22.73
2018-04-24T08:40:04.205Z,23.30
2018-04-24T08:42:32.725Z,24.40
2018-04-24T08:45:01.014Z,23.43
2018-04-24T08:47:29.725Z,24.47
2018-04-24T08:49:58.798Z,24.13
2018-04-24T08:52:29.076Z,24.90
2018-04-24T08:54:57.481Z,24.23
2018-04-24T08:57:25.874Z,24.07
2018-04-24T08:59:53.849Z,23.33
2018-04-24T09:02:23.248Z,24.40
2018-04-24T09:04:51.730Z,25.60
2018-04-24T09:07:19.900Z,25.23
2018-04-24T09:09:47.867Z,24.57
2018-04-24T09:12:16.146Z,23.30
2018-04-24T09:14:44.123Z,23.70
2018-04-24T09:17:12.590Z,24.70
2018-04-24T09:19:41.156Z,23.60
2018-04-24T09:22:09.306Z,25.30
2018-04-24T09:24:37.629Z,24.50
2018-04-24T09:27:07.764Z,22.80
2018-04-24T09:29:37.935Z,24.43
2018-04-24T09:32:07.714Z,24.10
2018-04-24T09:34:37.624Z,22.87
2018-04-24T09:37:05.866Z,21.53
2018-04-24T09:39:34.150Z,22.17
2018-04-24T09:42:02.751Z,22.00
2018-04-24T09:44:32.024Z,22.17
2018-04-24T09:47:01.153Z,23.03
2018-04-24T09:49:30.329Z,22.73
2018-04-24T09:51:59.901Z,22.90
2018-04-24T09:54:29.497Z,22.83
2018-04-24T09:56:58.147Z,24.07
2018-04-24T09:59:26.369Z,22.30
2018-04-24T10:01:55.932Z,23.63
2018-04-24T10:04:24.284Z,20.53
2018-04-24T10:06:53.348Z,20.73
2018-04-24T10:09:22.570Z,20.77
2018-04-24T10:11:51.047Z,21.90
2018-04-24T10:14:19.209Z,20.97
2018-04-24T10:16:48.517Z,21.47
2018-04-24T10:19:16.783Z,20.00
2018-04-24T10:21:45.385Z,21.70
2018-04-24T10:24:13.562Z,21.50
2018-04-24T10:26:42.038Z,20.70
2018-04-24T10:29:10.293Z,19.67
2018-04-24T10:31:38.689Z,19.63
2018-04-24T10:34:06.941Z,19.67
2018-04-24T10:36:35.031Z,19.03
2018-04-24T10:39:03.300Z,19.73
2018-04-24T10:41:31.681Z,20.00
2018-04-24T10:44:00.318Z,18.67
2018-04-24T10:46:28.653Z,18.50
2018-04-24T10:48:57.389Z,18.37
2018-04-24T10:51:25.808Z,20.17
2018-04-24T10:53:54.100Z,19.37
2018-04-24T10:56:22.662Z,19.30
2018-04-24T10:58:51.202Z,19.70
2018-04-24T11:01:19.643Z,17.90
2018-04-24T11:03:47.898Z,18.57
2018-04-24T11:06:16.194Z,19.50
2018-04-24T11:08:44.461Z,18.27
2018-04-24T11:11:12.687Z,18.33
2018-04-24T11:13:41.130Z,18.67
2018-04-24T11:16:10.510Z,18.80
2018-04-24T11:18:39.069Z,17.50
2018-04-24T11:21:07.943Z,17.30
2018-04-24T11:23:36.679Z,18.37
2018-04-24T11:26:04.754Z,18.37
2018-04-24T11:28:34.103Z,17.63
2018-04-24T11:31:02.721Z,17.97
2018-04-24T11:33:31.019Z,19.07
2018-04-24T11:35:59.551Z,17.67
2018-04-24T11:38:28.070Z,18.40
2018-04-24T11:40:56.348Z,20.43
2018-04-24T11:43:24.923Z,17.90
2018-04-24T11:45:53.119Z,18.67
2018-04-24T11:48:22.099Z,35.60
2018-04-24T11:50:50.994Z,19.20
2018-04-24T11:53:20.301Z,20.03
2018-04-24T11:55:48.718Z,19.63
2018-04-24T11:58:17.394Z,20.30
2018-04-24T12:00:46.144Z,19.13
2018-04-24T12:03:14.816Z,20.20
2018-04-24T12:05:44.101Z,22.37
2018-04-24T12:08:12.688Z,20.30
2018-04-24T12:10:41.270Z,23.27
2018-04-24T12:13:09.552Z,20.47
2018-04-24T12:15:38.142Z,17.37
2018-04-24T12:18:06.498Z,18.13
2018-04-24T12:20:35.799Z,19.80
2018-04-24T12:23:04.372Z,16.23
2018-04-24T12:25:33.308Z,18.97
2018-04-24T12:28:03.029Z,17.20
2018-04-24T12:30:32.940Z,17.37
2018-04-24T12:33:01.316Z,15.50
2018-04-24T12:35:30.200Z,16.90
2018-04-24T12:37:58.993Z,15.80
2018-04-24T12:40:28.778Z,16.07
2018-04-24T12:42:57.089Z,15.40
2018-04-24T12:45:26.375Z,15.53
2018-04-24T12:47:54.841Z,15.87
2018-04-24T12:50:23.144Z,15.57
2018-04-24T12:52:52.321Z,13.70
2018-04-24T12:55:20.402Z,14.00
2018-04-24T12:57:48.615Z,14.13
2018-04-24T13:00:16.961Z,15.23
2018-04-24T13:02:46.044Z,15.93
2018-04-24T13:05:14.614Z,15.20
2018-04-24T13:07:43.251Z,15.07
2018-04-24T13:10:11.486Z,15.00
2018-04-24T13:12:39.887Z,14.53
2018-04-24T13:15:09.316Z,14.40
2018-04-24T13:17:37.830Z,14.40
2018-04-24T13:20:06.735Z,13.90
2018-04-24T13:22:35.327Z,15.03
2018-04-24T13:25:03.495Z,14.10
2018-04-24T13:27:32.210Z,13.00
2018-04-24T13:30:01.070Z,14.20
2018-04-24T13:32:29.424Z,15.23
2018-04-24T13:34:57.421Z,15.30
2018-04-24T13:37:25.930Z,15.37
2018-04-24T13:39:54.961Z,15.17
2018-04-24T13:42:23.138Z,15.27
2018-04-24T13:44:51.442Z,15.03
2018-04-24T13:47:19.611Z,14.00
2018-04-24T13:49:48.889Z,14.40
2018-04-24T13:52:17.089Z,15.10
2018-04-24T13:54:44.953Z,16.00
2018-04-24T13:57:14.132Z,16.03
2018-04-24T13:59:44.436Z,15.10
2018-04-24T14:02:12.659Z,13.00
2018-04-24T14:04:40.932Z,13.93
2018-04-24T14:07:09.203Z,14.77
2018-04-24T14:09:37.540Z,13.33
2018-04-24T14:12:07.390Z,14.27
2018-04-24T14:14:36.004Z,15.20
2018-04-24T14:17:05.253Z,16.73
2018-04-24T14:19:33.556Z,14.33
2018-04-24T14:22:02.140Z,15.43
2018-04-24T14:24:31.139Z,16.70
2018-04-24T14:27:00.331Z,15.03
2018-04-24T14:29:28.491Z,16.50
2018-04-24T14:31:56.675Z,17.60
2018-04-24T14:34:25.780Z,17.17
2018-04-24T14:36:55.091Z,17.90
2018-04-24T14:39:24.444Z,14.93
2018-04-24T14:41:53.379Z,15.37
2018-04-24T14:44:22.355Z,15.83
2018-04-24T14:46:50.931Z,14.07
2018-04-24T14:49:19.123Z,15.63
2018-04-24T14:51:48.404Z,16.13
2018-04-24T14:54:17.503Z,15.77
2018-04-24T14:56:46.918Z,14.83
2018-04-24T14:59:16.323Z,15.87
2018-04-24T15:01:45.203Z,14.43
2018-04-24T15:04:13.811Z,15.37
2018-04-24T15:06:44.804Z,15.70
2018-04-24T15:09:13.203Z,15.80
2018-04-24T15:11:43.081Z,14.53
2018-04-24T15:14:11.236Z,15.07
2018-04-24T15:16:40.676Z,15.87
2018-04-24T15:19:09.300Z,15.77
2018-04-24T15:21:38.563Z,14.70
2018-04-24T15:24:06.963Z,14.37
2018-04-24T15:26:36.243Z,14.57
2018-04-24T15:29:04.643Z,14.70
2018-04-24T15:31:33.284Z,15.53
2018-04-24T15:34:01.913Z,14.70
2018-04-24T15:36:30.903Z,15.60
2018-04-24T15:38:59.982Z,13.67
2018-04-24T15:41:28.049Z,13.53
2018-04-24T15:43:56.541Z,13.40
2018-04-24T15:46:24.721Z,14.20
2018-04-24T15:48:53.700Z,13.93
2018-04-24T15:51:22.171Z,14.13
2018-04-24T15:53:50.759Z,29.70
2018-04-24T15:56:19.282Z,17.43
2018-04-24T15:58:47.520Z,14.27
2018-04-24T16:01:16.640Z,13.80
2018-04-24T16:03:46.022Z,14.07
2018-04-24T16:06:16.761Z,14.10
2018-04-24T16:08:45.000Z,13.70
2018-04-24T16:11:14.780Z,14.27
2018-04-24T16:13:43.242Z,14.40
2018-04-24T16:16:11.380Z,13.60
2018-04-24T16:18:39.662Z,13.07
2018-04-24T16:21:08.139Z,13.80
2018-04-24T16:23:36.380Z,12.10
2018-04-24T16:26:04.543Z,12.50
2018-04-24T16:28:32.799Z,13.70
2018-04-24T16:31:02.163Z,13.20
2018-04-24T16:33:30.339Z,13.77
2018-04-24T16:35:58.519Z,14.63
2018-04-24T16:38:27.306Z,14.40
2018-04-24T16:40:55.273Z,13.67
2018-04-24T16:43:23.659Z,13.60
2018-04-24T16:45:51.700Z,13.60
2018-04-24T16:48:19.802Z,13.07
2018-04-24T16:50:48.040Z,14.43
2018-04-24T16:53:16.628Z,13.57
2018-04-24T16:55:45.060Z,14.03
2018-04-24T16:58:14.021Z,32.37
2018-04-24T17:00:42.633Z,15.73
2018-04-24T17:03:11.603Z,13.70
2018-04-24T17:05:40.004Z,16.80
2018-04-24T17:08:18.040Z,13.90
2018-04-24T17:10:51.540Z,12.17
2018-04-24T17:13:20.881Z,14.20
2018-04-24T17:15:49.359Z,12.90
2018-04-24T17:18:18.338Z,13.90
2018-04-24T17:20:46.640Z,12.20
2018-04-24T17:23:15.609Z,12.63
2018-04-24T17:25:43.898Z,12.27
2018-04-24T17:28:12.178Z,12.90
2018-04-24T17:30:40.318Z,11.33
2018-04-24T17:33:08.738Z,10.90
2018-04-24T17:35:37.778Z,10.53
2018-04-24T17:38:06.102Z,11.93
2018-04-24T17:40:34.259Z,11.17
2018-04-24T17:43:02.598Z,11.20
2018-04-24T17:45:30.947Z,11.20
2018-04-24T17:48:00.761Z,11.80
2018-04-24T17:50:29.940Z,9.90
2018-04-24T17:52:58.410Z,11.20
2018-04-24T17:55:27.611Z,11.97
2018-04-24T17:57:56.003Z,11.87
2018-04-24T18:00:24.911Z,13.00
2018-04-24T18:02:53.905Z,12.30
2018-04-24T18:05:22.871Z,12.60
2018-04-24T18:07:54.921Z,13.60
2018-04-24T18:10:25.159Z,11.73
2018-04-24T18:12:53.759Z,12.20
2018-04-24T18:15:23.962Z,13.47
2018-04-24T18:17:52.339Z,12.10
2018-04-24T18:20:21.128Z,12.47
2018-04-24T18:22:51.132Z,11.50
2018-04-24T18:25:19.736Z,11.80
2018-04-24T18:27:49.288Z,12.70
2018-04-24T18:30:17.833Z,12.07
2018-04-24T18:32:47.337Z,13.27
2018-04-24T18:35:16.729Z,10.80
2018-04-24T18:37:45.834Z,11.53
2018-04-24T18:40:15.393Z,12.17
2018-04-24T18:42:44.617Z,13.03
2018-04-24T18:45:13.112Z,12.67
2018-04-24T18:47:42.552Z,13.47
2018-04-24T18:50:11.930Z,11.70
2018-04-24T18:52:41.017Z,13.10
2018-04-24T18:55:10.417Z,13.53
2018-04-24T18:57:39.886Z,13.50
2018-04-24T19:00:08.198Z,13.73
2018-04-24T19:02:37.606Z,15.20
2018-04-24T19:05:07.189Z,13.80
2018-04-24T19:07:41.399Z,15.20
2018-04-24T19:10:12.229Z,14.90
2018-04-24T19:12:41.653Z,14.07
2018-04-24T19:15:26.395Z,14.70
2018-04-24T19:17:55.797Z,14.63
2018-04-24T19:20:24.308Z,14.90
2018-04-24T19:22:53.590Z,15.03
2018-04-24T19:25:27.605Z,14.13
2018-04-24T19:27:55.983Z,13.73
2018-04-24T19:30:25.589Z,14.70
2018-04-24T19:32:55.109Z,16.67
2018-04-24T19:35:24.069Z,14.93
2018-04-24T19:37:52.373Z,15.30
2018-04-24T19:40:27.398Z,14.80
2018-04-24T19:42:57.013Z,14.03
2018-04-24T19:45:26.117Z,13.77
2018-04-24T19:47:55.285Z,13.80
2018-04-24T19:50:24.038Z,14.00
2018-04-24T19:52:52.534Z,13.60
2018-04-24T19:55:26.997Z,12.73
2018-04-24T19:57:56.789Z,13.67
2018-04-24T20:00:24.965Z,13.70
2018-04-24T20:02:53.351Z,13.27
2018-04-24T20:05:22.757Z,13.87
2018-04-24T20:07:52.324Z,13.80
2018-04-24T20:10:20.838Z,12.43
2018-04-24T20:12:50.452Z,11.87
2018-04-24T20:15:19.658Z,12.67
2018-04-24T20:17:49.049Z,12.77
2018-04-24T20:20:17.924Z,12.97
2018-04-24T20:22:46.878Z,11.87
2018-04-24T20:25:15.816Z,12.10
2018-04-24T20:27:44.166Z,11.43
2018-04-24T20:30:12.700Z,12.03
2018-04-24T20:32:42.085Z,12.30
2018-04-24T20:35:11.477Z,12.47
2018-04-24T20:37:40.655Z,12.57
2018-04-24T20:40:09.556Z,11.37
2018-04-24T20:42:37.748Z,11.40
2018-04-24T20:45:07.253Z,12.50
2018-04-24T20:47:35.915Z,10.87
2018-04-24T20:50:05.284Z,12.60
2018-04-24T20:52:33.925Z,12.93
2018-04-24T20:55:03.316Z,11.40
2018-04-24T20:57:31.796Z,11.93
2018-04-24T20:59:59.972Z,12.20
2018-04-24T21:02:29.189Z,12.43
2018-04-24T21:04:58.373Z,13.50
2018-04-24T21:07:27.748Z,12.50
2018-04-24T21:09:56.358Z,13.03
2018-04-24T21:12:25.556Z,13.70
2018-04-24T21:14:55.213Z,12.80
2018-04-24T21:17:23.795Z,13.70
2018-04-24T21:19:52.356Z,13.30
2018-04-24T21:22:20.613Z,12.77
2018-04-24T21:24:50.318Z,12.53
2018-04-24T21:27:22.168Z,13.10
2018-04-24T21:29:51.740Z,12.83
2018-04-24T21:32:19.956Z,12.83
2018-04-24T21:34:48.871Z,13.07
2018-04-24T21:37:17.693Z,13.10
2018-04-24T21:39:46.350Z,11.53
2018-04-24T21:42:15.437Z,12.70
2018-04-24T21:44:44.092Z,11.53
2018-04-24T21:47:13.294Z,13.33
2018-04-24T21:49:43.084Z,12.53
2018-04-24T21:52:11.285Z,12.23
2018-04-24T21:54:41.085Z,13.40
2018-04-24T21:57:09.669Z,12.80
2018-04-24T21:59:38.673Z,13.53
2018-04-24T22:02:08.478Z,14.40
2018-04-24T22:04:37.677Z,12.70
2018-04-24T22:07:08.607Z,13.30
2018-04-24T22:09:36.885Z,13.17
2018-04-24T22:12:05.372Z,14.20
2018-04-24T22:14:35.335Z,13.63
2018-04-24T22:17:03.373Z,12.90
2018-04-24T22:19:31.822Z,13.07
2018-04-24T22:22:00.582Z,14.77
2018-04-24T22:24:28.782Z,13.67
2018-04-24T22:26:57.978Z,14.00
2018-04-24T22:29:25.945Z,13.63
2018-04-24T22:31:54.221Z,14.20
2018-04-24T22:34:24.039Z,15.83
2018-04-24T22:36:52.205Z,14.30
2018-04-24T22:39:21.262Z,13.90
2018-04-24T22:41:49.377Z,14.43
2018-04-24T22:44:17.748Z,13.90
2018-04-24T22:46:45.926Z,14.57
2018-04-24T22:49:13.997Z,15.03
2018-04-24T22:51:42.447Z,15.30
2018-04-24T22:54:11.674Z,14.87
2018-04-24T22:56:39.864Z,15.97
2018-04-24T22:59:08.639Z,15.10
2018-04-24T23:01:38.865Z,14.50
2018-04-24T23:04:07.035Z,15.87
2018-04-24T23:06:35.203Z,14.77
2018-04-24T23:09:03.473Z,15.40
2018-04-24T23:11:45.087Z,15.10
2018-04-24T23:14:25.631Z,16.37
2018-04-24T23:17:05.376Z,15.37
2018-04-24T23:19:45.444Z,15.70
2018-04-24T23:22:35.258Z,16.20
2018-04-24T23:25:03.587Z,16.27
2018-04-24T23:27:31.980Z,16.80
2018-04-24T23:30:01.173Z,15.83
2018-04-24T23:32:29.338Z,17.60
2018-04-24T23:34:57.504Z,16.73
2018-04-24T23:37:25.766Z,15.50
2018-04-24T23:39:54.348Z,16.50
2018-04-24T23:42:22.540Z,16.60
2018-04-24T23:44:50.512Z,15.13
2018-04-24T23:47:19.615Z,15.80
2018-04-24T23:49:48.927Z,15.83
2018-04-24T23:52:18.107Z,15.67
2018-04-24T23:54:46.467Z,15.70
2018-04-24T23:57:14.660Z,18.00
2018-04-24T23:59:42.828Z,17.20
